Etusivu
METAR-TAF:

METAR-TAF

Lentoasemat :

Norrköping, Ruotsi

Leveyspiiri: 58-35N, Pituuspiiri: 016-09E, korkeus merenpinnasta: 34 m

Tämänhetkinen sää

Tämä raportti tehtiin 41 minuuttia sitten, kello 04.20 UTC
Tuuli 2 kn idästä/kaakosta
Lämpötila 1°C
Kosteus 100%
Ilmanpaine 1026 hPa
Näkyvyys: 0700 m
sumuhattaroita

METAR: ESSP 230420Z 11002KT 0700 R09/1500N R27/0900N BCFG NSC 01/01 Q1026

Aika: 07:01 (05:01 UTC)

Sääennuste

Tämä raportti tehtiin 2 tuntia ja 2 minuuttia sitten, kello 02.59 UTC
Ennuste voimassa 23. päivästä klo 03 UTC - 23. päivään klo 12 UTC
Tuuli 2 kn eri suunnista
Näkyvyys: 0200 m
sumuhattaroita
Tulossa
23. päivästä klo 03 UTC - 23. päivään klo 05 UTC
Näkyvyys 10 km tai enemmän

TAF: ESSP 230259Z 2303/2312 VRB02KT 0200 BCFG NSC BECMG 2303/2305 9999 NSW

Säähavainnot ja -ennusteet yli 4000 lentoasemalta (METAR- ja TAF-raportit).

Käytössä olevat sääasemat on merkitty karttaan keltaisilla ja punaisilla pisteillä.

Aseta hiiri pisteen päälle nähdäksesi sääaseman nimen.

Klikkaa sitten nähdäksesi säähavainnot ja -ennusteet.

Kartan vaihtaminen: klikkaa mustalla rastilla varustettuja vihreitä pisteitä, niin voit zoomata sisään; viivalla varustettua vihreää pistettä, niin voit zoomata ulos tai vihreitä nuolia, niin pääset viereisille kartoille.


METAR-TAF: